Station Historical Data
Daily Summary for October 9, 2017 Units:  Metric    English   Both
« Previous Day
Next Day »
Daily Weekly Monthly Yearly Custom
  High: Low: Average:
Temperature: 20.2 °C 15.4 °C 17.7 °C
Dew Point: 17.7 °C 13.9 °C 16.1 °C
Humidity: 94% 82% 90%
Wind Speed: 19.3km/h 0km/h 4km/h
Wind Gust: 27.4km/h - -
Wind- - SSE
Pressure: 1016.5 hPa 1005.6 hPa -
Precipitation: 0 mm    
Historical Graphs
 
 
Tabular Data for October 9, 2017
Time Temperature Dew Point Pressure Wind Wind Speed Wind Gust Humidity Rainfall Rate (Hourly)
00:04 17.3 °C 14.4 °C 1011.7 hPa Calm     83% 0 mm
00:09 17.3 °C 14.6 °C 1011.7 hPa Calm     84% 0 mm
00:14 17.3 °C 14.6 °C 1011.7 hPa Calm     84% 0 mm
00:19 17.3 °C 14.7 °C 1011.7 hPa Calm     85% 0 mm
00:24 17.2 °C 14.7 °C 1011.7 hPa Calm     85% 0 mm
00:29 17.2 °C 14.8 °C 1011.7 hPa Calm     86% 0 mm
00:34 17.2 °C 14.8 °C 1011.7 hPa Calm     86% 0 mm
00:39 17.1 °C 14.7 °C 1011.7 hPa Calm     86% 0 mm
00:44 17.1 °C 14.7 °C 1011.7 hPa Calm     86% 0.25 mm
00:49 17.1 °C 14.9 °C 1011.7 hPa East 3.2 km/h 3.2 km/h 87% 0.25 mm
00:54 17 °C 14.8 °C 1011.7 hPa Calm   4.8 km/h 87% 0.25 mm
00:59 16.9 °C 14.8 °C 1011.7 hPa Calm     87% 0.25 mm
01:04 16.9 °C 14.8 °C 1011.7 hPa Calm     87% 0.51 mm
01:09 16.9 °C 14.7 °C 1011.7 hPa Calm   4.8 km/h 87% 0.51 mm
01:14 16.8 °C 14.8 °C 1012.1 hPa East 3.2 km/h 4.8 km/h 88% 0.76 mm
01:19 16.9 °C 14.9 °C 1012.1 hPa SSE 3.2 km/h 3.2 km/h 88% 1.02 mm
01:24 16.8 °C 15 °C 1011.7 hPa Calm   4.8 km/h 89% 1.02 mm
01:29 16.8 °C 15 °C 1012.1 hPa ESE 1.6 km/h 8 km/h 89% 1.27 mm
01:34 16.8 °C 15 °C 1011.7 hPa Calm   8 km/h 89% 1.52 mm
01:39 16.8 °C 15.2 °C 1011.7 hPa Calm     90% 1.78 mm
01:44 16.8 °C 15.2 °C 1011.7 hPa Calm     90% 2.03 mm
01:49 16.8 °C 15.2 °C 1011.7 hPa Calm     90% 2.29 mm
01:54 16.8 °C 15.2 °C 1011.7 hPa Calm     90% 2.54 mm
01:59 16.8 °C 15.1 °C 1011.7 hPa Calm   4.8 km/h 90% 3.05 mm
02:04 16.8 °C 15.1 °C 1011.7 hPa Calm     90% 2.79 mm
02:09 16.7 °C 15.2 °C 1011.7 hPa Calm   3.2 km/h 91% 3.05 mm
02:14 16.7 °C 15.2 °C 1011.4 hPa ENE 1.6 km/h 3.2 km/h 91% 2.79 mm
02:19 16.8 °C 15.3 °C 1011.7 hPa Calm   3.2 km/h 91% 2.54 mm
02:24 16.8 °C 15.3 °C 1011.7 hPa Calm     91% 2.54 mm
02:29 16.8 °C 15.3 °C 1011.4 hPa Calm     91% 2.29 mm
02:34 16.8 °C 15.3 °C 1010.7 hPa NE 1.6 km/h 8 km/h 91% 2.54 mm
02:44 16.9 °C 15.4 °C 1010.7 hPa Calm   6.4 km/h 91% 2.03 mm
02:49 16.9 °C 15.4 °C 1010.7 hPa NE 3.2 km/h 4.8 km/h 91% 1.78 mm
02:59 16.9 °C 15.4 °C 1010.7 hPa ENE 3.2 km/h 8 km/h 91% 3.56 mm
03:04 16.9 °C 15.4 °C 1010.7 hPa ENE 1.6 km/h 9.7 km/h 91% 4.57 mm
03:09 16.7 °C 15.2 °C 1010.4 hPa ENE 3.2 km/h 12.9 km/h 91% 5.59 mm
03:14 16.6 °C 15.1 °C 1010 hPa ENE 6.4 km/h 14.5 km/h 91% 6.35 mm
03:24 15.9 °C 14.5 °C 1009.7 hPa NE 9.7 km/h 19.3 km/h 91% 6.6 mm
03:29 15.7 °C 14.3 °C 1009.7 hPa NE 12.9 km/h 16.1 km/h 91% 6.86 mm
03:34 15.6 °C 14.1 °C 1009.7 hPa ENE 4.8 km/h 16.1 km/h 91% 6.35 mm
03:39 15.5 °C 14.1 °C 1010 hPa Calm   12.9 km/h 91% 6.1 mm
03:44 15.4 °C 14 °C 1009.7 hPa ENE 14.5 km/h 14.5 km/h 91% 6.6 mm
03:49 15.4 °C 13.9 °C 1009.4 hPa ENE 14.5 km/h 19.3 km/h 91% 6.86 mm
03:59 15.5 °C 14.2 °C 1009.4 hPa ENE 8 km/h 14.5 km/h 92% 4.06 mm
04:04 15.7 °C 14.4 °C 1009.4 hPa ENE 6.4 km/h 14.5 km/h 92% 3.56 mm
04:09 15.8 °C 14.5 °C 1009.4 hPa ENE 3.2 km/h 11.3 km/h 92% 2.03 mm
04:14 15.8 °C 14.6 °C 1009 hPa NE 3.2 km/h 11.3 km/h 92% 1.52 mm
04:19 15.9 °C 14.7 °C 1009 hPa NE 3.2 km/h 11.3 km/h 92% 1.27 mm
04:24 16.1 °C 14.8 °C 1009 hPa NE 6.4 km/h 12.9 km/h 92% 1.27 mm
04:29 16.2 °C 14.9 °C 1008.7 hPa NE 6.4 km/h 16.1 km/h 92% 1.02 mm
04:34 16.3 °C 15 °C 1008.7 hPa NE 9.7 km/h 14.5 km/h 92% 1.27 mm
04:39 16.4 °C 15.1 °C 1008.7 hPa ENE 8 km/h 17.7 km/h 92% 1.27 mm
04:44 16.5 °C 15.2 °C 1008.4 hPa NE 12.9 km/h 16.1 km/h 92% 0.76 mm
04:49 16.6 °C 15.3 °C 1008.4 hPa ENE 6.4 km/h 16.1 km/h 92% 0.51 mm
04:54 16.6 °C 15.3 °C 1008 hPa ENE 9.7 km/h 19.3 km/h 92% 0.51 mm
04:59 16.7 °C 15.3 °C 1008 hPa NE 9.7 km/h 20.9 km/h 92% 0.51 mm
05:04 16.7 °C 15.3 °C 1008 hPa NE 11.3 km/h 20.9 km/h 92% 0.51 mm
05:09 16.7 °C 15.3 °C 1008 hPa ENE 9.7 km/h 20.9 km/h 92% 0.51 mm
05:14 16.7 °C 15.3 °C 1008 hPa NE 9.7 km/h 19.3 km/h 92% 0.51 mm
05:19 16.7 °C 15.3 °C 1008 hPa ENE 8 km/h 19.3 km/h 92% 0.51 mm
05:24 16.7 °C 15.3 °C 1007.7 hPa ENE 8 km/h 17.7 km/h 92% 0.51 mm
05:29 16.7 °C 15.3 °C 1007.7 hPa NE 11.3 km/h 20.9 km/h 92% 0.51 mm
05:34 16.7 °C 15.3 °C 1007.7 hPa ENE 6.4 km/h 12.9 km/h 92% 0.51 mm
05:39 16.7 °C 15.4 °C 1007.3 hPa ENE 12.9 km/h 17.7 km/h 92% 0.51 mm
05:44 16.7 °C 15.3 °C 1007.3 hPa ENE 11.3 km/h 17.7 km/h 92% 0.76 mm
05:49 16.7 °C 15.4 °C 1007.3 hPa ENE 8 km/h 17.7 km/h 92% 0.76 mm
05:54 16.7 °C 15.4 °C 1007 hPa ENE 6.4 km/h 20.9 km/h 92% 0.76 mm
05:59 16.7 °C 15.4 °C 1007 hPa ENE 8 km/h 20.9 km/h 92% 0.76 mm
06:04 16.7 °C 15.3 °C 1007.3 hPa NE 4.8 km/h 16.1 km/h 92% 0.51 mm
06:09 16.7 °C 15.4 °C 1007.3 hPa NE 4.8 km/h 12.9 km/h 92% 0.51 mm
06:14 16.7 °C 15.4 °C 1007.3 hPa ENE 4.8 km/h 12.9 km/h 92% 0.76 mm
06:19 16.7 °C 15.4 °C 1007.3 hPa ENE 4.8 km/h 12.9 km/h 92% 0.76 mm
06:24 16.7 °C 15.4 °C 1007 hPa Calm   16.1 km/h 92% 1.02 mm
06:29 16.7 °C 15.4 °C 1007 hPa ENE 6.4 km/h 12.9 km/h 92% 1.27 mm
06:34 16.7 °C 15.4 °C 1007 hPa ENE 3.2 km/h 8 km/h 92% 1.52 mm
06:39 16.7 °C 15.4 °C 1007 hPa ENE 1.6 km/h 11.3 km/h 92% 2.29 mm
06:44 16.7 °C 15.4 °C 1007 hPa NE 3.2 km/h 12.9 km/h 92% 2.29 mm
06:49 16.7 °C 15.4 °C 1007 hPa NE 3.2 km/h 12.9 km/h 92% 2.29 mm
06:54 16.7 °C 15.4 °C 1007 hPa NE 1.6 km/h 8 km/h 92% 2.29 mm
06:59 16.7 °C 15.4 °C 1007 hPa ENE 1.6 km/h 8 km/h 92% 2.79 mm
07:04 16.7 °C 15.4 °C 1007 hPa Calm   8 km/h 92% 3.3 mm
07:09 16.7 °C 15.4 °C 1007 hPa Calm     92% 3.3 mm
07:14 16.7 °C 15.4 °C 1006.7 hPa NE 3.2 km/h 3.2 km/h 92% 3.56 mm
07:19 16.7 °C 15.3 °C 1006.7 hPa Calm   6.4 km/h 92% 4.06 mm
07:24 16.6 °C 15.3 °C 1006.7 hPa NNE 1.6 km/h 6.4 km/h 92% 4.32 mm
07:29 16.6 °C 15.3 °C 1006.7 hPa NE 3.2 km/h 6.4 km/h 92% 4.57 mm
07:34 16.5 °C 15.4 °C 1006.7 hPa NE 1.6 km/h 6.4 km/h 93% 4.57 mm
07:39 16.5 °C 15.4 °C 1006.3 hPa NE 1.6 km/h 4.8 km/h 93% 5.08 mm
07:44 16.4 °C 15.3 °C 1006.3 hPa NNE 3.2 km/h 9.7 km/h 93% 6.6 mm
07:49 16.3 °C 15.2 °C 1006 hPa NNE 3.2 km/h 9.7 km/h 93% 8.38 mm
07:54 16.3 °C 15.2 °C 1006 hPa NE 4.8 km/h 9.7 km/h 93% 9.65 mm
07:59 16.2 °C 15.1 °C 1006 hPa NNE 4.8 km/h 9.7 km/h 93% 10.16 mm
08:04 16.2 °C 15.1 °C 1006 hPa North 6.4 km/h 8 km/h 93% 10.92 mm
08:09 16.2 °C 15.1 °C 1006 hPa NNE 1.6 km/h 9.7 km/h 93% 12.19 mm
08:14 16.2 °C 15.1 °C 1006 hPa North 4.8 km/h 14.5 km/h 93% 12.45 mm
08:19 16.2 °C 15.1 °C 1006 hPa North 4.8 km/h 14.5 km/h 93% 12.95 mm
08:24 16.2 °C 15.1 °C 1006 hPa North 4.8 km/h 16.1 km/h 93% 13.21 mm
08:29 16.2 °C 15.1 °C 1005.6 hPa NNW 8 km/h 11.3 km/h 93% 13.21 mm
08:34 16.2 °C 15.1 °C 1006 hPa NE 4.8 km/h 14.5 km/h 93% 12.95 mm
08:39 16.1 °C 15 °C 1006 hPa NNE 3.2 km/h 9.7 km/h 93% 12.45 mm
08:44 16.2 °C 15.1 °C 1006 hPa NNE 4.8 km/h 9.7 km/h 93% 10.67 mm
08:49 16.2 °C 15.1 °C 1006.3 hPa NNE 4.8 km/h 9.7 km/h 93% 9.65 mm
08:54 16.2 °C 15.1 °C 1006.3 hPa NW 3.2 km/h 12.9 km/h 93% 8.89 mm
08:59 16.3 °C 15.2 °C 1006.7 hPa Calm   17.7 km/h 93% 8.38 mm
09:04 16.3 °C 15.2 °C 1006.7 hPa North 4.8 km/h 14.5 km/h 93% 8.13 mm
09:09 16.4 °C 15.3 °C 1006.7 hPa NNE 4.8 km/h 14.5 km/h 93% 7.87 mm
09:14 16.4 °C 15.3 °C 1007 hPa NNE 4.8 km/h 14.5 km/h 93% 7.87 mm
09:19 16.5 °C 15.4 °C 1006.7 hPa NE 4.8 km/h 17.7 km/h 93% 9.14 mm
09:24 16.6 °C 15.6 °C 1006.7 hPa NE 6.4 km/h 19.3 km/h 94% 9.4 mm
09:29 16.6 °C 15.7 °C 1006.7 hPa NE 8 km/h 17.7 km/h 94% 9.91 mm
09:34 16.7 °C 15.7 °C 1006.7 hPa NE 4.8 km/h 16.1 km/h 94% 10.41 mm
09:39 16.7 °C 15.6 °C 1006.7 hPa ENE 8 km/h 22.5 km/h 93% 9.91 mm
09:44 16.8 °C 15.7 °C 1006.7 hPa NNE 6.4 km/h 19.3 km/h 93% 9.91 mm
09:49 16.8 °C 15.7 °C 1007 hPa NE 9.7 km/h 20.9 km/h 93% 9.4 mm
09:54 16.9 °C 15.9 °C 1007 hPa NNE 8 km/h 19.3 km/h 94% 9.4 mm
09:59 17 °C 16 °C 1007 hPa ENE 6.4 km/h 16.1 km/h 94% 9.14 mm
10:04 17.1 °C 15.9 °C 1006.7 hPa ENE 16.1 km/h 20.9 km/h 93% 8.64 mm
10:09 17.1 °C 15.9 °C 1007 hPa NE 9.7 km/h 20.9 km/h 93% 7.62 mm
10:14 17.2 °C 16.1 °C 1006.7 hPa NE 9.7 km/h 22.5 km/h 93% 6.1 mm
10:19 17.3 °C 16.2 °C 1006.7 hPa NE 11.3 km/h 22.5 km/h 93% 4.06 mm
10:24 17.6 °C 16.4 °C 1006.7 hPa ENE 11.3 km/h 22.5 km/h 93% 3.05 mm
10:34 17.8 °C 16.6 °C 1007 hPa NE 11.3 km/h 27.4 km/h 93% 1.78 mm
10:39 17.9 °C 16.7 °C 1007 hPa NNE 8 km/h 17.7 km/h 93% 1.52 mm
10:44 17.8 °C 16.5 °C 1007 hPa NE 12.9 km/h 17.7 km/h 92% 1.02 mm
10:49 17.9 °C 16.6 °C 1007 hPa NE 8 km/h 19.3 km/h 92% 0.76 mm
10:54 17.9 °C 16.6 °C 1007.3 hPa ENE 19.3 km/h 20.9 km/h 92% 0.51 mm
10:59 18.1 °C 16.8 °C 1007.3 hPa ENE 6.4 km/h 20.9 km/h 92% 0.25 mm
11:04 18.2 °C 16.9 °C 1007.3 hPa NE 9.7 km/h 20.9 km/h 92% 0 mm
11:09 18.2 °C 16.7 °C 1007.3 hPa NE 8 km/h 17.7 km/h 91% 0 mm
11:14 18.3 °C 16.8 °C 1007.3 hPa NE 6.4 km/h 16.1 km/h 91% 0 mm
11:19 18.3 °C 16.8 °C 1007.7 hPa NE 3.2 km/h 16.1 km/h 91% 0 mm
11:24 18.2 °C 16.7 °C 1007.7 hPa Calm   8 km/h 91% 0 mm
11:29 18.3 °C 16.8 °C 1008 hPa Calm   6.4 km/h 91% 0 mm
11:34 18.3 °C 16.8 °C 1008 hPa NNE 1.6 km/h 8 km/h 91% 0 mm
11:39 18.2 °C 16.7 °C 1008 hPa NE 1.6 km/h 8 km/h 91% 0 mm
11:44 18.3 °C 16.8 °C 1008 hPa NE 1.6 km/h 11.3 km/h 91% 0 mm
11:49 18.4 °C 16.9 °C 1008 hPa NE 1.6 km/h 6.4 km/h 91% 0 mm
11:54 18.4 °C 16.9 °C 1008.4 hPa NE 1.6 km/h 1.6 km/h 91% 0 mm
11:59 18.3 °C 16.8 °C 1008.4 hPa Calm   6.4 km/h 91% 0 mm
12:04 18.4 °C 16.9 °C 1008.4 hPa NNE 1.6 km/h 6.4 km/h 91% 0 mm
12:09 18.4 °C 16.9 °C 1008.4 hPa North 1.6 km/h 6.4 km/h 91% 0 mm
12:14 18.3 °C 16.8 °C 1008.4 hPa Calm   8 km/h 91% 0 mm
12:19 18.4 °C 16.9 °C 1008.4 hPa North 4.8 km/h 8 km/h 91% 0 mm
12:24 18.3 °C 17 °C 1008.4 hPa North 4.8 km/h 12.9 km/h 92% 0 mm
12:29 18.3 °C 17 °C 1008.7 hPa Calm   9.7 km/h 92% 0 mm
12:34 18.3 °C 17 °C 1008.7 hPa NNW 3.2 km/h 9.7 km/h 92% 0 mm
12:39 18.3 °C 17 °C 1008.7 hPa NNW 3.2 km/h 11.3 km/h 92% 0 mm
12:44 18.3 °C 17 °C 1009 hPa North 3.2 km/h 11.3 km/h 92% 0 mm
12:49 18.4 °C 17.1 °C 1009 hPa NNW 3.2 km/h 9.7 km/h 92% 0.25 mm
12:54 18.6 °C 17.2 °C 1008.7 hPa Calm   6.4 km/h 92% 0.25 mm
13:04 18.9 °C 17.6 °C 1008.7 hPa NNW 3.2 km/h 11.3 km/h 92% 0.25 mm
13:09 19.1 °C 17.7 °C 1008.7 hPa Calm   4.8 km/h 92% 0.25 mm
13:14 19.1 °C 17.6 °C 1009 hPa Calm   3.2 km/h 91% 0.25 mm
13:19 19.2 °C 17.7 °C 1009 hPa NNE 4.8 km/h 8 km/h 91% 0.25 mm
13:24 18.9 °C 17.4 °C 1009 hPa NNE 1.6 km/h 6.4 km/h 91% 0.25 mm
13:29 18.8 °C 17.3 °C 1009 hPa North 3.2 km/h 12.9 km/h 91% 0.25 mm
13:34 19 °C 17.5 °C 1009 hPa NNW 3.2 km/h 12.9 km/h 91% 0.25 mm
13:39 18.9 °C 17.3 °C 1009.4 hPa NNW 3.2 km/h 8 km/h 90% 0.25 mm
13:44 18.8 °C 17.3 °C 1009.4 hPa NNW 3.2 km/h 8 km/h 91% 0.25 mm
13:49 18.9 °C 17.4 °C 1009.4 hPa North 3.2 km/h 8 km/h 91% 0 mm
13:54 18.9 °C 17.2 °C 1009.4 hPa NNE 3.2 km/h 8 km/h 90% 0 mm
13:59 19.1 °C 17.6 °C 1009.4 hPa Calm   6.4 km/h 91% 0 mm
14:04 19.2 °C 17.7 °C 1009.4 hPa North 1.6 km/h 6.4 km/h 91% 0 mm
14:09 19.3 °C 17.6 °C 1009.4 hPa Calm   6.4 km/h 90% 0 mm
14:14 19.4 °C 17.7 °C 1009.4 hPa NNW 1.6 km/h 6.4 km/h 90% 0 mm
14:19 19.5 °C 17.6 °C 1009.4 hPa NNW 4.8 km/h 4.8 km/h 89% 0 mm
14:24 19.4 °C 17.3 °C 1009.7 hPa North 3.2 km/h 9.7 km/h 88% 0 mm
14:29 19.4 °C 17.3 °C 1009.7 hPa NNE 3.2 km/h 9.7 km/h 88% 0 mm
14:34 19.7 °C 17.6 °C 1009.7 hPa NE 3.2 km/h 9.7 km/h 88% 0 mm
14:39 19.7 °C 17.6 °C 1009.7 hPa NE 1.6 km/h 8 km/h 88% 0 mm
14:44 19.7 °C 17.4 °C 1009.7 hPa Calm   4.8 km/h 87% 0 mm
14:49 19.6 °C 17.2 °C 1010 hPa NW 3.2 km/h 8 km/h 86% 0 mm
14:54 19.7 °C 17.3 °C 1010 hPa NNW 3.2 km/h 6.4 km/h 86% 0 mm
15:04 20 °C 17.4 °C 1010 hPa NNW 1.6 km/h 6.4 km/h 85% 0 mm
15:09 20.1 °C 17.4 °C 1010.4 hPa Calm   4.8 km/h 85% 0 mm
15:14 20.1 °C 17.3 °C 1010.4 hPa NW 1.6 km/h 6.4 km/h 84% 0 mm
15:19 20.2 °C 17.2 °C 1010.4 hPa NW 4.8 km/h 4.8 km/h 83% 0 mm
15:24 20.2 °C 17.4 °C 1010.4 hPa NNW 4.8 km/h 6.4 km/h 84% 0 mm
15:29 20.1 °C 17.1 °C 1010.4 hPa NNW 1.6 km/h 6.4 km/h 83% 0 mm
15:34 19.9 °C 16.9 °C 1010.4 hPa Calm   8 km/h 83% 0 mm
15:39 20 °C 17 °C 1010.4 hPa Calm   4.8 km/h 83% 0 mm
15:44 19.9 °C 16.7 °C 1010.7 hPa Calm   6.4 km/h 82% 0 mm
15:49 19.9 °C 17.2 °C 1010.7 hPa West 8 km/h 11.3 km/h 84% 0 mm
15:54 19.7 °C 17.3 °C 1011.1 hPa WNW 4.8 km/h 11.3 km/h 86% 0 mm
15:59 19.3 °C 16.9 °C 1011.1 hPa WNW 4.8 km/h 9.7 km/h 86% 0 mm
16:04 19.1 °C 16.8 °C 1011.1 hPa NW 3.2 km/h 9.7 km/h 87% 0 mm
16:09 18.7 °C 16.5 °C 1011.1 hPa NW 4.8 km/h 12.9 km/h 87% 0 mm
16:19 18.6 °C 16.6 °C 1011.1 hPa WNW 4.8 km/h 8 km/h 88% 0 mm
16:24 18.6 °C 16.6 °C 1011.4 hPa WNW 1.6 km/h 8 km/h 88% 0 mm
16:29 18.5 °C 16.7 °C 1011.4 hPa West 4.8 km/h 9.7 km/h 89% 0 mm
16:34 18.5 °C 16.7 °C 1011.4 hPa WNW 6.4 km/h 11.3 km/h 89% 0 mm
16:39 18.4 °C 16.4 °C 1011.4 hPa Calm   6.4 km/h 88% 0 mm
16:44 18.4 °C 16.6 °C 1011.4 hPa WNW 4.8 km/h 6.4 km/h 89% 0 mm
16:49 18.4 °C 16.6 °C 1011.4 hPa West 3.2 km/h 4.8 km/h 89% 0 mm
16:54 18.4 °C 16.6 °C 1011.7 hPa WNW 3.2 km/h 8 km/h 89% 0 mm
16:59 18.3 °C 16.5 °C 1011.7 hPa West 3.2 km/h 8 km/h 89% 0 mm
17:04 18.4 °C 16.6 °C 1011.7 hPa West 3.2 km/h 8 km/h 89% 0 mm
17:09 18.4 °C 16.6 °C 1012.1 hPa WNW 3.2 km/h 8 km/h 89% 0 mm
17:14 18.4 °C 16.6 °C 1012.1 hPa WNW 3.2 km/h 6.4 km/h 89% 0 mm
17:19 18.4 °C 16.6 °C 1012.1 hPa West 3.2 km/h 9.7 km/h 89% 0 mm
17:24 18.3 °C 16.5 °C 1012.4 hPa Calm   6.4 km/h 89% 0 mm
17:29 18.4 °C 16.6 °C 1012.4 hPa West 3.2 km/h 9.7 km/h 89% 0 mm
17:34 18.3 °C 16.3 °C 1012.4 hPa West 4.8 km/h 9.7 km/h 88% 0 mm
17:39 18.3 °C 16.3 °C 1012.8 hPa West 4.8 km/h 9.7 km/h 88% 0 mm
17:44 18.3 °C 16.3 °C 1012.8 hPa WNW 4.8 km/h 11.3 km/h 88% 0 mm
17:49 18.3 °C 16.3 °C 1012.8 hPa WNW 8 km/h 8 km/h 88% 0 mm
17:54 18.3 °C 16.3 °C 1012.8 hPa WNW 3.2 km/h 8 km/h 88% 0 mm
17:59 18.4 °C 16.4 °C 1012.8 hPa WNW 3.2 km/h 8 km/h 88% 0 mm
18:04 18.4 °C 16.4 °C 1012.8 hPa West 1.6 km/h 4.8 km/h 88% 0 mm
18:14 18.4 °C 16.4 °C 1013.1 hPa Calm   4.8 km/h 88% 0 mm
18:19 18.5 °C 16.5 °C 1013.1 hPa Calm     88% 0 mm
18:24 18.5 °C 16.5 °C 1013.1 hPa Calm     88% 0 mm
18:29 18.5 °C 16.5 °C 1013.4 hPa Calm     88% 0 mm
18:39 18.6 °C 16.3 °C 1013.4 hPa Calm     87% 0 mm
18:44 18.6 °C 16.3 °C 1013.4 hPa Calm     87% 0 mm
18:49 18.6 °C 16.4 °C 1013.8 hPa Calm     87% 0 mm
18:54 18.6 °C 16.4 °C 1013.8 hPa Calm     87% 0 mm
18:59 18.7 °C 16.4 °C 1013.8 hPa Calm     87% 0 mm
19:09 18.7 °C 16.6 °C 1014.1 hPa SW 4.8 km/h 8 km/h 88% 0 mm
19:14 18.7 °C 16.4 °C 1014.1 hPa SW 8 km/h 9.7 km/h 87% 0 mm
19:19 18.6 °C 16.4 °C 1014.1 hPa WSW 4.8 km/h 9.7 km/h 87% 0 mm
19:24 18.6 °C 16.4 °C 1014.1 hPa SW 4.8 km/h 9.7 km/h 87% 0 mm
19:29 18.6 °C 16.4 °C 1014.1 hPa SW 3.2 km/h 8 km/h 87% 0 mm
19:39 18.6 °C 16.4 °C 1014.1 hPa WSW 3.2 km/h 11.3 km/h 87% 0 mm
19:54 18.5 °C 16.5 °C 1014.1 hPa WSW 4.8 km/h 12.9 km/h 88% 0 mm
20:04 18.4 °C 16.6 °C 1014.4 hPa SW 4.8 km/h 6.4 km/h 89% 0 mm
20:09 18.3 °C 16.7 °C 1014.4 hPa SW 4.8 km/h 6.4 km/h 90% 0 mm
20:14 18.3 °C 16.6 °C 1014.4 hPa SSW 3.2 km/h 8 km/h 90% 0 mm
20:19 18.3 °C 16.6 °C 1014.4 hPa SW 4.8 km/h 8 km/h 90% 0 mm
20:24 18.3 °C 16.8 °C 1014.4 hPa SSW 1.6 km/h 8 km/h 91% 0 mm
20:34 18.3 °C 16.8 °C 1014.8 hPa Calm   6.4 km/h 91% 0 mm
20:39 18.3 °C 16.8 °C 1014.8 hPa SSW 3.2 km/h 6.4 km/h 91% 0 mm
20:44 18.2 °C 16.7 °C 1014.8 hPa WSW 3.2 km/h 9.7 km/h 91% 0 mm
20:49 18.2 °C 16.9 °C 1014.8 hPa SW 4.8 km/h 9.7 km/h 92% 0 mm
20:54 18.2 °C 16.9 °C 1015.1 hPa SW 3.2 km/h 8 km/h 92% 0 mm
20:59 18.2 °C 16.9 °C 1015.1 hPa SW 3.2 km/h 8 km/h 92% 0 mm
21:04 18.2 °C 16.8 °C 1015.1 hPa SW 3.2 km/h 9.7 km/h 92% 0 mm
21:09 18.2 °C 16.8 °C 1015.1 hPa SW 3.2 km/h 9.7 km/h 92% 0 mm
21:14 18.2 °C 16.9 °C 1015.1 hPa SW 3.2 km/h 8 km/h 92% 0 mm
21:19 18.2 °C 16.9 °C 1015.5 hPa SW 6.4 km/h 11.3 km/h 92% 0 mm
21:24 18.3 °C 16.9 °C 1015.1 hPa SW 6.4 km/h 11.3 km/h 92% 0 mm
21:29 18.3 °C 16.9 °C 1015.1 hPa SSW 6.4 km/h 9.7 km/h 92% 0 mm
21:39 18.3 °C 16.9 °C 1015.5 hPa SSW 1.6 km/h 9.7 km/h 92% 0 mm
21:44 18.3 °C 17 °C 1015.5 hPa SW 3.2 km/h 8 km/h 92% 0 mm
21:49 18.3 °C 17 °C 1015.5 hPa SW 4.8 km/h 6.4 km/h 92% 0 mm
21:54 18.3 °C 17 °C 1015.5 hPa SW 3.2 km/h 6.4 km/h 92% 0 mm
21:59 18.3 °C 17 °C 1015.5 hPa SW 3.2 km/h 8 km/h 92% 0 mm
22:04 18.4 °C 17.1 °C 1015.8 hPa SW 4.8 km/h 9.7 km/h 92% 0 mm
22:09 18.4 °C 17.1 °C 1015.8 hPa SSE 3.2 km/h 9.7 km/h 92% 0 mm
22:14 18.4 °C 17.1 °C 1015.8 hPa SSW 8 km/h 14.5 km/h 92% 0 mm
22:19 18.4 °C 17.1 °C 1015.8 hPa SW 6.4 km/h 14.5 km/h 92% 0 mm
22:24 18.4 °C 17.1 °C 1015.8 hPa WSW 4.8 km/h 14.5 km/h 92% 0 mm
22:29 18.4 °C 17.1 °C 1015.8 hPa SW 9.7 km/h 14.5 km/h 92% 0 mm
22:34 18.5 °C 17 °C 1015.8 hPa WSW 12.9 km/h 12.9 km/h 91% 0 mm
22:39 18.5 °C 17 °C 1015.8 hPa SW 3.2 km/h 12.9 km/h 91% 0 mm
22:44 18.6 °C 17.1 °C 1015.8 hPa SW 6.4 km/h 16.1 km/h 91% 0 mm
22:49 18.5 °C 17 °C 1016.1 hPa SW 8 km/h 22.5 km/h 91% 0 mm
22:59 18.6 °C 17.1 °C 1016.1 hPa WSW 4.8 km/h 11.3 km/h 91% 0 mm
23:04 18.6 °C 16.9 °C 1016.1 hPa SW 3.2 km/h 16.1 km/h 90% 0 mm
23:09 18.6 °C 16.9 °C 1016.1 hPa WSW 1.6 km/h 9.7 km/h 90% 0 mm
23:19 18.7 °C 17 °C 1016.1 hPa SW 4.8 km/h 14.5 km/h 90% 0 mm
23:20 18.7 °C 17 °C 1016.1 hPa WSW 6.4 km/h 14.5 km/h 90% 0 mm
23:29 18.8 °C 17.1 °C 1016.1 hPa WSW 6.4 km/h 16.1 km/h 90% 0 mm
23:34 18.8 °C 17.1 °C 1016.5 hPa WSW 8 km/h 9.7 km/h 90% 0 mm
23:39 18.8 °C 17.1 °C 1016.5 hPa West 6.4 km/h 12.9 km/h 90% 0 mm
23:44 18.8 °C 17.2 °C 1016.5 hPa SW 3.2 km/h 9.7 km/h 90% 0 mm
23:49 18.8 °C 17.2 °C 1016.5 hPa WSW 3.2 km/h 9.7 km/h 90% 0 mm
23:54 18.9 °C 17.2 °C 1016.5 hPa WSW 4.8 km/h 9.7 km/h 90% 0 mm
23:59 18.8 °C 17.2 °C 1016.5 hPa West 3.2 km/h 12.9 km/h 90% 0 mm
Buffalo, New York, USA
Compliments of Weather Underground - 2.25 mb